Time;durP1;ratioP1;P1;durP2;ratioP2;P2;SDS_P1;SDS_P2;PMS_P1;PMS_P2;Temp;Humidity;BMP_temperature;BMP_pressure;BME280_temperature;BME280_humidity;BME280_pressure;Samples;Min_cycle;Max_cycle;Signal;HPM_P1;HPM_P2
2022/12/22 05:03:00;;;;;;;49.13;22.92;;;;;;;0.60;100.00;100512.94;5779713;27;20135;-84
2022/12/22 05:06:05;;;;;;;49.40;24.58;;;;;;;0.67;100.00;100511.53;5325702;33;33670;-85
2022/12/22 05:09:09;;;;;;;59.00;25.23;;;;;;;0.70;100.00;100516.59;5325904;33;33669;-86
2022/12/22 05:15:35;;;;;;;56.17;25.92;;;;;;;0.65;100.00;100514.31;5312690;33;33128;-85
2022/12/22 05:18:39;;;;;;;56.45;26.48;;;;;;;0.69;100.00;100514.91;5325653;33;33973;-85
2022/12/22 05:21:42;;;;;;;57.72;25.62;;;;;;;0.70;100.00;100513.12;5325674;33;33503;-85
2022/12/22 05:24:45;;;;;;;52.25;25.70;;;;;;;0.71;100.00;100515.66;5326250;33;34199;-86
2022/12/22 05:27:49;;;;;;;60.95;26.60;;;;;;;0.74;100.00;100528.69;5326491;33;35253;-89
2022/12/22 05:30:53;;;;;;;49.58;24.50;;;;;;;0.78;100.00;100516.91;5325633;33;34041;-89
2022/12/22 05:33:55;;;;;;;52.05;25.27;;;;;;;0.80;100.00;100520.28;5328982;33;34604;-87
2022/12/22 05:36:58;;;;;;;60.83;26.98;;;;;;;0.89;100.00;100524.06;5328233;33;33680;-86
2022/12/22 05:40:01;;;;;;;56.22;25.90;;;;;;;0.88;100.00;100522.41;5329836;33;33901;-85
2022/12/22 05:43:04;;;;;;;53.25;25.48;;;;;;;0.88;100.00;100522.41;5328420;33;33516;-85
2022/12/22 05:46:09;;;;;;;56.75;25.67;;;;;;;0.87;100.00;100516.22;5314633;33;33846;-85
2022/12/22 05:49:12;;;;;;;55.45;24.85;;;;;;;0.76;100.00;100508.22;5325017;33;33451;-85
2022/12/22 05:52:15;;;;;;;55.08;26.27;;;;;;;0.81;100.00;100506.06;5324746;33;34452;-85
2022/12/22 05:55:18;;;;;;;55.97;28.05;;;;;;;0.87;100.00;100499.47;5324369;33;33799;-85
2022/12/22 05:58:21;;;;;;;64.45;28.27;;;;;;;0.90;100.00;100513.34;5324738;33;33617;-85
2022/12/22 06:01:23;;;;;;;60.80;29.02;;;;;;;0.90;100.00;100505.41;5324543;33;34313;-85
2022/12/22 06:04:26;;;;;;;58.70;29.10;;;;;;;0.84;100.00;100503.19;5323687;33;34256;-85
2022/12/22 06:07:29;;;;;;;57.80;27.67;;;;;;;0.93;100.00;100509.62;5323672;33;34602;-85
2022/12/22 06:10:32;;;;;;;61.13;28.35;;;;;;;0.84;100.00;100510.31;5311542;33;32230;-85
2022/12/22 06:13:35;;;;;;;54.35;26.05;;;;;;;0.93;100.00;100517.59;5324671;33;34345;-85
2022/12/22 06:16:38;;;;;;;57.58;27.20;;;;;;;0.95;100.00;100520.12;5324172;33;34272;-84
2022/12/22 06:19:40;;;;;;;54.17;26.15;;;;;;;0.92;100.00;100521.19;5342883;33;34300;-84
2022/12/22 06:22:43;;;;;;;52.90;24.08;;;;;;;0.96;100.00;100509.41;5331409;33;33111;-84
2022/12/22 06:25:58;;;;;;;54.50;27.52;;;;;;;1.01;100.00;100524.97;5357197;33;35505;-84
2022/12/22 06:29:01;;;;;;;55.55;26.08;;;;;;;1.10;100.00;100524.28;5351305;33;34134;-84
2022/12/22 06:32:04;;;;;;;55.35;26.05;;;;;;;1.03;100.00;100537.16;5342625;33;33983;-84
2022/12/22 06:35:08;;;;;;;59.17;26.90;;;;;;;1.00;100.00;100532.09;5342537;33;34760;-85
2022/12/22 06:38:11;;;;;;;56.13;25.80;;;;;;;0.97;100.00;100532.31;5343004;33;34091;-85
2022/12/22 06:43:07;;;;;;;62.90;27.65;;;;;;;1.00;100.00;100532.09;5342703;33;33873;-86
2022/12/22 06:44:37;;;;;;;55.45;25.15;;;;;;;0.92;100.00;100537.09;5347913;33;33994;-85
2022/12/22 06:47:39;;;;;;;55.92;26.70;;;;;;;0.85;100.00;100536.72;5347747;33;33943;-85
2022/12/22 06:50:44;;;;;;;56.20;25.67;;;;;;;0.89;100.00;100530.22;5344313;33;33768;-84
2022/12/22 06:53:46;;;;;;;55.92;26.12;;;;;;;0.86;100.00;100542.84;5331375;33;34699;-84
2022/12/22 06:56:49;;;;;;;53.42;24.87;;;;;;;0.92;100.00;100542.41;5310757;33;33127;-85
2022/12/22 06:59:52;;;;;;;56.00;27.00;;;;;;;0.94;100.00;100544.94;5303122;33;270866;-85
2022/12/22 07:02:59;;;;;;;55.03;26.77;;;;;;;0.99;100.00;100546.28;5324031;33;34602;-84
2022/12/22 07:06:03;;;;;;;53.80;25.85;;;;;;;1.03;100.00;100550.44;5324327;33;33563;-85
2022/12/22 07:09:05;;;;;;;56.25;26.45;;;;;;;1.18;100.00;100547.59;5323876;33;34979;-84
2022/12/22 07:12:09;;;;;;;56.75;25.90;;;;;;;1.19;100.00;100536.03;5311989;33;33210;-84
2022/12/22 07:15:11;;;;;;;55.47;26.58;;;;;;;1.20;100.00;100540.38;5323876;33;33945;-85
2022/12/22 07:18:14;;;;;;;55.10;26.33;;;;;;;1.12;100.00;100533.84;5324162;33;34645;-85
2022/12/22 07:21:17;;;;;;;53.83;26.17;;;;;;;1.15;100.00;100532.78;5323671;33;34282;-84
2022/12/22 07:24:23;;;;;;;54.90;27.15;;;;;;;1.20;100.00;100532.41;5323890;33;34578;-88
2022/12/22 07:27:26;;;;;;;56.65;27.48;;;;;;;1.31;100.00;100538.59;5326689;33;35278;-89
2022/12/22 07:30:29;;;;;;;58.42;27.23;;;;;;;1.34;100.00;100530.41;5330172;33;34087;-89
2022/12/22 07:33:32;;;;;;;54.47;27.92;;;;;;;1.38;100.00;100528.41;5329087;33;34291;-85
2022/12/22 07:36:35;;;;;;;55.28;26.12;;;;;;;1.39;100.00;100535.41;5312938;33;32436;-85
2022/12/22 07:39:38;;;;;;;56.92;27.15;;;;;;;1.50;100.00;100539.91;5325965;33;33739;-85
2022/12/22 07:42:43;;;;;;;60.12;27.25;;;;;;;1.46;100.00;100538.41;5310247;33;32288;-85
2022/12/22 07:45:46;;;;;;;58.85;26.52;;;;;;;1.41;100.00;100538.78;5323638;33;33876;-85
2022/12/22 07:52:10;;;;;;;59.45;29.50;;;;;;;1.41;100.00;100546.75;5324421;33;33969;-85
2022/12/22 07:55:13;;;;;;;62.72;29.27;;;;;;;1.45;100.00;100553.50;5322922;33;34675;-85
2022/12/22 07:58:16;;;;;;;62.03;28.75;;;;;;;1.50;100.00;100559.31;5323488;33;34912;-85
2022/12/22 08:01:19;;;;;;;52.92;27.05;;;;;;;1.53;100.00;100564.38;5323237;33;33922;-84
2022/12/22 08:04:22;;;;;;;52.92;26.77;;;;;;;1.39;100.00;100553.13;5325239;33;33875;-85
2022/12/22 08:07:24;;;;;;;54.38;28.65;;;;;;;1.40;100.00;100547.69;5312035;33;33129;-84
2022/12/22 08:10:27;;;;;;;62.83;28.77;;;;;;;1.48;100.00;100542.66;5325486;33;33767;-84
2022/12/22 08:13:30;;;;;;;56.90;28.62;;;;;;;1.51;100.00;100541.59;5311893;33;34090;-85
2022/12/22 08:16:33;;;;;;;60.15;28.10;;;;;;;1.62;100.00;100551.41;5324959;33;34333;-84
2022/12/22 08:19:36;;;;;;;55.28;28.20;;;;;;;1.55;100.00;100545.69;5325642;33;34044;-84
2022/12/22 08:22:39;;;;;;;58.03;28.30;;;;;;;1.67;100.00;100546.56;5325353;33;34403;-85
2022/12/22 08:25:42;;;;;;;59.33;29.25;;;;;;;1.81;100.00;100552.53;5312270;33;32288;-84
2022/12/22 08:29:17;;;;;;;55.85;28.33;;;;;;;1.88;100.00;100544.09;5325136;33;33974;-85
2022/12/22 08:32:20;;;;;;;58.50;28.62;;;;;;;2.15;100.00;100535.81;5317957;33;33946;-85
2022/12/22 08:35:23;;;;;;;60.15;28.10;;;;;;;2.29;100.00;100538.22;5311777;33;32519;-84
2022/12/22 08:38:25;;;;;;;61.42;30.30;;;;;;;2.39;100.00;100541.00;5325617;33;33943;-84
2022/12/22 08:44:52;;;;;;;62.45;31.42;;;;;;;2.60;100.00;100535.78;5329559;33;34830;-84
2022/12/22 08:47:55;;;;;;;57.92;29.63;;;;;;;2.51;100.00;100540.00;5336918;33;33768;-84
2022/12/22 08:50:58;;;;;;;58.58;28.87;;;;;;;2.59;100.00;100542.06;5324659;33;33678;-84
2022/12/22 08:54:01;;;;;;;61.55;28.95;;;;;;;2.62;100.00;100561.28;5335747;33;35274;-90
2022/12/22 08:57:08;;;;;;;60.70;31.45;;;;;;;2.74;100.00;100546.16;5324959;33;34556;-89
2022/12/22 09:00:14;;;;;;;57.83;29.17;;;;;;;2.61;100.00;100548.13;5317356;33;33905;-86
2022/12/22 09:03:16;;;;;;;63.63;29.10;;;;;;;2.70;100.00;100539.41;5325651;33;33818;-85
2022/12/22 09:06:21;;;;;;;61.92;28.73;;;;;;;2.68;100.00;100541.34;5316038;33;34496;-85
2022/12/22 09:09:33;;;;;;;;;;;;;;;2.80;100.00;100532.34;5325689;33;34263;-84
2022/12/22 09:12:36;;;;;;;59.13;29.60;;;;;;;2.92;100.00;100530.53;5325151;33;34390;-84
2022/12/22 09:15:39;;;;;;;60.80;28.25;;;;;;;2.99;100.00;100529.06;5325226;33;33867;-84
2022/12/22 09:18:41;;;;;;;53.00;27.62;;;;;;;2.91;100.00;100521.69;5326045;33;34151;-85
2022/12/22 09:21:44;;;;;;;54.60;26.83;;;;;;;3.03;100.00;100521.69;5329646;33;34385;-85
2022/12/22 09:24:48;;;;;;;62.08;29.35;;;;;;;3.09;100.00;100526.50;5328819;33;34060;-85
2022/12/22 09:27:50;;;;;;;59.03;30.92;;;;;;;3.04;100.00;100500.28;5328494;33;33822;-85
2022/12/22 09:30:54;;;;;;;67.55;30.48;;;;;;;3.16;100.00;100507.25;5314946;33;32626;-84
2022/12/22 09:33:57;;;;;;;60.10;31.00;;;;;;;3.14;100.00;100495.03;5327108;33;34168;-84
2022/12/22 09:37:00;;;;;;;63.33;31.35;;;;;;;3.13;100.00;100496.00;5325621;33;33818;-85
2022/12/22 09:40:05;;;;;;;63.20;30.62;;;;;;;3.06;100.00;100487.69;5325013;33;34070;-85
2022/12/22 09:43:14;;;;;;;65.55;32.67;;;;;;;3.14;100.00;100495.88;5324516;33;33866;-85
2022/12/22 09:46:30;;;;;;;56.42;29.42;;;;;;;3.20;100.00;100489.22;5325708;33;33996;-85
2022/12/22 09:49:33;;;;;;;61.80;30.80;;;;;;;2.99;100.00;100494.50;5313351;33;32291;-85
2022/12/22 09:52:36;;;;;;;66.45;32.83;;;;;;;2.95;100.00;100498.34;5324559;33;34002;-85
2022/12/22 09:55:46;;;;;;;64.93;31.05;;;;;;;2.99;100.00;100493.66;5325801;33;34972;-84
2022/12/22 09:58:48;;;;;;;67.55;31.65;;;;;;;3.07;100.00;100493.84;5323598;33;34510;-85
2022/12/22 10:02:18;;;;;;;60.97;32.20;;;;;;;2.99;100.00;100491.00;5311799;33;32168;-85
2022/12/22 10:05:29;;;;;;;65.03;31.65;;;;;;;2.93;100.00;100482.53;5323877;33;34079;-85
2022/12/22 10:08:35;;;;;;;65.10;31.67;;;;;;;2.80;100.00;100479.19;5324056;33;33675;-85
2022/12/22 10:11:38;;;;;;;58.20;29.63;;;;;;;2.86;100.00;100484.00;5325545;33;35198;-84
2022/12/22 10:14:44;;;;;;;67.22;32.55;;;;;;;2.76;100.00;100493.72;5324229;33;33944;-86
2022/12/22 10:17:53;;;;;;;65.28;31.35;;;;;;;2.77;100.00;100482.09;5324741;33;33608;-89
2022/12/22 10:21:07;;;;;;;63.42;29.58;;;;;;;2.97;100.00;100466.34;5324109;33;34297;-86
2022/12/22 10:24:34;;;;;;;62.72;30.50;;;;;;;2.95;100.00;100462.00;5310405;33;32493;-85
2022/12/22 10:27:37;;;;;;;63.17;30.30;;;;;;;3.08;100.00;100450.34;5311989;33;33800;-85
2022/12/22 10:30:47;;;;;;;57.83;29.98;;;;;;;3.17;100.00;100458.38;5320570;33;34072;-85
2022/12/22 10:33:53;;;;;;;63.83;30.85;;;;;;;3.44;100.00;100457.03;5324471;33;33608;-85
2022/12/22 10:37:00;;;;;;;60.47;30.23;;;;;;;3.45;100.00;100460.53;5311484;33;32090;-84
2022/12/22 10:40:20;;;;;;;56.00;28.87;;;;;;;3.43;100.00;100447.37;5318134;33;33669;-84
2022/12/22 10:43:27;;;;;;;61.88;32.35;;;;;;;3.62;100.00;100446.63;5323991;33;33553;-85
2022/12/22 10:46:30;;;;;;;57.90;30.33;;;;;;;3.79;100.00;100440.69;5311816;33;32610;-85
2022/12/22 10:49:36;;;;;;;56.22;29.50;;;;;;;3.83;98.55;100444.81;5325457;33;34065;-85
2022/12/22 10:52:38;;;;;;;61.97;33.10;;;;;;;3.81;99.86;100416.63;5325110;33;35140;-85
2022/12/22 10:55:43;;;;;;;61.63;32.83;;;;;;;4.00;99.14;100407.84;5323779;33;34161;-85
2022/12/22 10:58:56;;;;;;;64.85;31.17;;;;;;;3.57;100.00;100403.63;5325164;33;34333;-84
2022/12/22 11:02:21;;;;;;;61.83;32.60;;;;;;;3.46;100.00;100414.34;5324480;33;33830;-84
2022/12/22 11:05:24;;;;;;;59.58;32.17;;;;;;;3.75;100.00;100430.47;5325751;33;33964;-84
2022/12/22 11:08:30;;;;;;;63.87;32.35;;;;;;;4.07;99.92;100420.50;5324986;33;33733;-84
2022/12/22 11:11:54;;;;;;;56.67;30.27;;;;;;;3.95;99.55;100418.91;5326114;33;34312;-89
2022/12/22 11:15:32;;;;;;;63.22;34.83;;;;;;;4.10;99.31;100422.06;5327726;33;33722;-85
2022/12/22 11:18:46;;;;;;;63.58;30.73;;;;;;;4.17;98.05;100423.19;5321658;33;33128;-84
2022/12/22 11:21:55;;;;;;;64.97;31.52;;;;;;;4.28;95.59;100415.09;5326963;33;34511;-85
2022/12/22 11:25:30;;;;;;;59.58;31.30;;;;;;;4.32;94.78;100403.16;5326519;33;34187;-85
2022/12/22 11:28:42;;;;;;;64.30;30.73;;;;;;;4.70;92.76;100404.22;5324212;33;33637;-85
2022/12/22 11:32:14;;;;;;;61.08;33.75;;;;;;;5.02;91.04;100408.44;5312072;33;32562;-85
2022/12/22 11:35:29;;;;;;;61.25;33.60;;;;;;;5.34;92.35;100402.78;5296305;33;32187;-85
2022/12/22 11:38:44;;;;;;;65.00;33.90;;;;;;;5.67;90.54;100397.91;5312489;33;33511;-85
2022/12/22 11:42:42;;;;;;;65.00;32.60;;;;;;;5.54;89.54;100398.22;5313567;33;32216;-85
2022/12/22 11:46:23;;;;;;;60.38;33.80;;;;;;;5.09;89.72;100408.69;5249119;33;32144;-84
2022/12/22 11:49:36;;;;;;;60.12;32.47;;;;;;;4.60;94.09;100418.53;5326661;33;34554;-85
2022/12/22 11:53:15;;;;;;;65.75;33.58;;;;;;;4.43;96.15;100412.88;5337117;33;34278;-85
2022/12/22 11:56:22;;;;;;;64.53;33.97;;;;;;;4.49;97.03;100412.31;5329404;33;34066;-85
2022/12/22 11:59:47;;;;;;;60.55;30.77;;;;;;;4.48;96.28;100410.66;5336696;33;34877;-89
2022/12/22 12:03:02;;;;;;;56.65;31.90;;;;;;;4.44;95.95;100397.72;5317610;33;32519;-85
2022/12/22 12:06:14;;;;;;;67.85;34.35;;;;;;;4.13;97.96;100395.16;5318821;33;33613;-85
2022/12/22 12:09:26;;;;;;;57.20;30.00;;;;;;;3.98;100.00;100401.81;5329031;33;33782;-86
2022/12/22 12:12:51;;;;;;;57.95;31.02;;;;;;;4.00;99.14;100398.03;5328025;33;34157;-85
2022/12/22 12:16:25;;;;;;;64.57;30.20;;;;;;;3.86;99.67;100403.72;5327234;33;35230;-85
2022/12/22 12:19:50;;;;;;;66.47;30.52;;;;;;;3.81;100.00;100401.47;5311716;33;33354;-84
2022/12/22 12:23:16;;;;;;;63.63;29.17;;;;;;;3.75;100.00;100399.34;5324828;33;34124;-84
2022/12/22 12:26:24;;;;;;;65.53;30.20;;;;;;;3.69;100.00;100385.72;5313821;33;34533;-89
2022/12/22 12:29:34;;;;;;;64.95;33.67;;;;;;;3.67;100.00;100375.19;5312972;33;33147;-85
2022/12/22 12:32:56;;;;;;;56.67;29.65;;;;;;;3.78;100.00;100385.75;5325696;33;33799;-84
2022/12/22 12:36:18;;;;;;;66.95;32.50;;;;;;;3.78;100.00;100392.91;5312832;33;32657;-84
2022/12/22 12:39:31;;;;;;;65.03;31.75;;;;;;;3.77;100.00;100410.72;5306467;33;33014;-84
2022/12/22 12:42:41;;;;;;;60.55;30.77;;;;;;;4.06;100.00;100436.59;5312785;33;32726;-84
2022/12/22 12:45:47;;;;;;;57.70;28.52;;;;;;;3.92;100.00;100434.31;5325447;33;34845;-84
2022/12/22 12:48:50;;;;;;;61.35;32.80;;;;;;;3.80;100.00;100437.06;5325122;33;34277;-84
2022/12/22 12:51:54;;;;;;;61.22;32.40;;;;;;;3.64;100.00;100426.87;5325628;33;33817;-85
2022/12/22 12:55:29;;;;;;;60.67;31.75;;;;;;;3.84;100.00;100433.16;5325037;33;33938;-84
2022/12/22 12:58:38;;;;;;;68.68;32.28;;;;;;;3.83;100.00;100430.63;5295195;33;32435;-84
2022/12/22 13:01:40;;;;;;;67.12;31.83;;;;;;;3.61;100.00;100419.16;5325140;33;33788;-85
2022/12/22 13:05:02;;;;;;;64.45;31.77;;;;;;;3.63;100.00;100419.06;5312515;33;32219;-84
2022/12/22 13:08:19;;;;;;;60.25;30.00;;;;;;;3.60;100.00;100411.34;5324923;33;33420;-88
2022/12/22 13:11:36;;;;;;;66.12;32.97;;;;;;;3.51;100.00;100418.28;5312440;33;33199;-83
2022/12/22 13:15:00;;;;;;;63.40;31.10;;;;;;;3.54;100.00;100409.16;5315941;33;33932;-84
2022/12/22 13:18:31;;;;;;;69.07;34.38;;;;;;;3.40;100.00;100413.03;5296524;33;32338;-83
2022/12/22 13:21:41;;;;;;;69.37;30.95;;;;;;;3.50;100.00;100402.44;5316021;33;33336;-83
2022/12/22 13:24:58;;;;;;;64.18;31.60;;;;;;;3.40;100.00;100363.31;5316472;33;34676;-84
2022/12/22 13:28:02;;;;;;;59.65;31.23;;;;;;;3.42;100.00;100365.81;5311483;33;32056;-84
2022/12/22 13:31:19;;;;;;;67.62;33.42;;;;;;;3.37;100.00;100373.38;5312364;33;32526;-85
2022/12/22 13:34:37;;;;;;;63.47;33.40;;;;;;;3.42;100.00;100371.16;5310364;33;32669;-85
2022/12/22 13:38:00;;;;;;;69.30;31.40;;;;;;;3.38;100.00;100362.59;5321132;33;33507;-89
2022/12/22 13:41:15;;;;;;;66.62;31.27;;;;;;;3.26;100.00;100350.34;5326539;33;34370;-89
2022/12/22 13:44:32;;;;;;;66.55;31.95;;;;;;;3.06;100.00;100320.12;5326384;33;34510;-84
2022/12/22 13:47:40;;;;;;;68.70;31.50;;;;;;;2.91;100.00;100350.69;5325261;33;33949;-85
2022/12/22 13:50:48;;;;;;;65.32;31.73;;;;;;;2.89;100.00;100315.41;5326553;33;33927;-85
2022/12/22 13:53:58;;;;;;;67.25;31.40;;;;;;;2.84;100.00;100326.44;5330222;33;34806;-84
2022/12/22 13:57:21;;;;;;;66.50;33.00;;;;;;;2.80;100.00;100327.66;5314952;33;32480;-85
2022/12/22 14:00:25;;;;;;;66.45;32.22;;;;;;;2.68;100.00;100361.41;5304421;33;32428;-84
2022/12/22 14:03:28;;;;;;;70.00;30.95;;;;;;;2.63;100.00;100307.81;5304172;33;32588;-85
2022/12/22 14:06:51;;;;;;;66.55;32.38;;;;;;;2.65;100.00;100315.66;5325022;33;34377;-84
2022/12/22 14:09:55;;;;;;;64.10;30.25;;;;;;;2.63;100.00;100306.94;5312421;33;32499;-83
2022/12/22 14:13:01;;;;;;;67.22;30.83;;;;;;;2.69;100.00;100339.19;5324910;33;34869;-84
2022/12/22 14:16:05;;;;;;;72.72;30.75;;;;;;;2.59;100.00;100345.41;5306090;33;33009;-84
2022/12/22 14:19:12;;;;;;;67.75;31.08;;;;;;;2.66;100.00;100355.41;5325547;33;34284;-84
2022/12/22 14:22:19;;;;;;;70.47;31.48;;;;;;;2.69;100.00;100309.97;5311367;33;32233;-84
2022/12/22 14:25:28;;;;;;;63.03;32.08;;;;;;;2.69;100.00;100333.00;5311581;33;33076;-84
2022/12/22 14:28:48;;;;;;;64.60;32.53;;;;;;;2.72;100.00;100330.09;5325169;33;33809;-84
2022/12/22 14:31:56;;;;;;;73.10;33.15;;;;;;;2.71;100.00;100328.44;5311909;33;33232;-88
2022/12/22 14:34:59;;;;;;;72.37;33.35;;;;;;;2.71;100.00;100325.78;5325222;33;34206;-85
2022/12/22 14:38:23;;;;;;;69.07;31.83;;;;;;;2.73;100.00;100342.44;5324394;33;34426;-84
2022/12/22 14:41:42;;;;;;;70.03;32.53;;;;;;;2.79;100.00;100347.25;5324744;33;33821;-84
2022/12/22 14:44:46;;;;;;;71.22;31.02;;;;;;;2.82;100.00;100372.72;5325044;33;34636;-84
2022/12/22 14:47:51;;;;;;;63.13;31.17;;;;;;;2.77;100.00;100375.75;5312006;33;32885;-83
2022/12/22 14:50:54;;;;;;;65.28;32.83;;;;;;;2.82;100.00;100368.25;5325625;33;34090;-84
2022/12/22 14:54:01;;;;;;;69.37;32.63;;;;;;;2.85;100.00;100360.00;5311886;33;33078;-83
2022/12/22 14:57:12;;;;;;;70.05;33.10;;;;;;;2.77;100.00;100365.13;5324805;33;34806;-85
2022/12/22 15:00:23;;;;;;;66.50;31.63;;;;;;;2.69;100.00;100341.84;5324956;33;33991;-84
2022/12/22 15:03:34;;;;;;;67.53;32.30;;;;;;;2.66;100.00;100338.59;5325182;33;34319;-85
2022/12/22 15:06:42;;;;;;;70.47;32.45;;;;;;;2.57;100.00;100324.25;5324936;33;33932;-84
2022/12/22 15:09:45;;;;;;;75.62;37.35;;;;;;;2.50;100.00;100323.94;5324476;33;33937;-83
2022/12/22 15:13:21;;;;;;;70.55;34.55;;;;;;;2.46;100.00;100324.31;5327110;33;33975;-85
2022/12/22 15:16:24;;;;;;;67.22;31.50;;;;;;;2.43;100.00;100333.38;5329013;33;33862;-85
2022/12/22 15:19:32;;;;;;;74.87;33.15;;;;;;;2.34;100.00;100328.84;5324971;33;33493;-84
2022/12/22 15:22:34;;;;;;;69.03;32.15;;;;;;;2.30;100.00;100321.25;5321819;33;33971;-88
2022/12/22 15:25:37;;;;;;;74.80;32.55;;;;;;;2.18;100.00;100331.87;5311761;33;34711;-89
2022/12/22 15:28:40;;;;;;;77.85;35.92;;;;;;;2.10;100.00;100331.66;5323976;33;34134;-88
2022/12/22 15:31:44;;;;;;;75.22;32.97;;;;;;;2.08;100.00;100323.00;5323900;33;33715;-89
2022/12/22 15:34:46;;;;;;;81.90;34.55;;;;;;;2.09;100.00;100311.41;5311374;33;32064;-84
2022/12/22 15:37:49;;;;;;;79.20;35.35;;;;;;;2.09;100.00;100305.25;5324097;33;33836;-85
2022/12/22 15:40:52;;;;;;;76.35;33.15;;;;;;;2.09;100.00;100292.81;5323993;33;34507;-84
2022/12/22 15:43:55;;;;;;;79.60;35.70;;;;;;;2.07;100.00;100294.75;5313686;33;32590;-84
2022/12/22 15:47:01;;;;;;;74.60;35.38;;;;;;;2.08;100.00;100287.59;5328213;33;33726;-84
2022/12/22 15:50:04;;;;;;;78.35;36.35;;;;;;;2.03;100.00;100280.87;5325483;33;33668;-85
2022/12/22 15:53:14;;;;;;;80.97;34.05;;;;;;;2.13;100.00;100278.31;5326912;33;33979;-84
2022/12/22 15:56:21;;;;;;;84.68;37.05;;;;;;;2.09;100.00;100270.72;5328658;33;33601;-85
2022/12/22 15:59:26;;;;;;;81.50;35.83;;;;;;;2.01;100.00;100277.50;5324035;33;33905;-84
2022/12/22 16:02:29;;;;;;;84.87;38.33;;;;;;;1.99;100.00;100267.97;5324070;33;34434;-83
2022/12/22 16:05:38;;;;;;;88.85;38.20;;;;;;;2.00;100.00;100270.50;5324088;33;33602;-84
2022/12/22 16:08:44;;;;;;;84.30;36.80;;;;;;;1.99;100.00;100282.09;5323722;33;33925;-85
